Time;durP1;ratioP1;P1;durP2;ratioP2;P2;SDS_P1;SDS_P2;PMS_P1;PMS_P2;Temp;Humidity;BMP_temperature;BMP_pressure;BME280_temperature;BME280_humidity;BME280_pressure;Samples;Min_cycle;Max_cycle;Signal;HPM_P1;HPM_P2
2021/01/04 00:01:45;;;;;;;25.30;14.30;;;5.30;83.30;;;4.28;67.76;94320.13;5054079;28;20225;-81
2021/01/04 00:04:52;;;;;;;24.92;14.65;;;5.30;83.40;;;4.28;67.49;94316.75;5052076;28;20536;-80
2021/01/04 00:07:45;;;;;;;24.58;15.05;;;5.20;83.30;;;4.23;67.46;94317.25;5052881;28;20634;-80
2021/01/04 00:10:49;;;;;;;26.23;15.68;;;5.20;83.40;;;4.22;67.51;94314.81;5036262;28;20223;-81
2021/01/04 00:13:24;;;;;;;29.80;15.68;;;5.20;83.40;;;4.19;67.71;94315.16;5051401;28;20196;-81
2021/01/04 00:16:02;;;;;;;23.98;14.10;;;5.10;83.30;;;4.15;67.62;94314.66;5057949;28;20716;-81
2021/01/04 00:18:58;;;;;;;31.23;14.85;;;5.20;83.30;;;4.15;67.62;94312.06;5050861;28;20234;-81
2021/01/04 00:21:57;;;;;;;24.67;14.35;;;5.10;83.30;;;4.11;67.87;94314.22;5070597;28;20195;-81
2021/01/04 00:24:39;;;;;;;23.48;13.77;;;5.10;83.40;;;4.12;67.59;94322.81;5050820;28;20584;-81
2021/01/04 00:27:36;;;;;;;21.27;13.15;;;5.10;83.40;;;4.11;67.94;94321.19;5035218;28;20220;-81
2021/01/04 00:30:37;;;;;;;27.80;12.45;;;5.00;83.40;;;4.09;67.58;94313.56;5055121;28;20721;-81
2021/01/04 00:33:16;;;;;;;23.50;13.35;;;5.10;83.60;;;4.10;67.49;94310.00;5053278;28;20203;-81
2021/01/04 00:35:54;;;;;;;27.38;14.90;;;5.00;83.50;;;4.12;67.76;94312.41;5070453;28;20203;-79
2021/01/04 00:38:39;;;;;;;26.60;13.52;;;5.00;83.50;;;4.13;67.80;94322.63;5034490;28;20294;-81
2021/01/04 00:41:34;;;;;;;30.58;13.52;;;5.00;83.50;;;4.10;67.45;94327.34;5058156;28;20309;-81
2021/01/04 00:44:07;;;;;;;27.67;14.82;;;5.00;83.40;;;4.11;67.46;94334.16;5045362;28;20241;-81
2021/01/04 00:46:39;;;;;;;23.17;14.40;;;5.00;83.40;;;4.10;67.81;94337.72;5051622;28;20207;-81
2021/01/04 00:49:29;;;;;;;26.45;13.23;;;5.00;83.50;;;4.07;67.63;94341.47;5035773;28;20291;-81
2021/01/04 00:52:26;;;;;;;24.67;14.77;;;5.10;83.60;;;4.06;67.69;94345.03;5053770;28;20211;-81
2021/01/04 00:55:09;;;;;;;25.05;14.80;;;5.00;83.40;;;4.01;67.63;94339.53;5059892;28;20215;-81
2021/01/04 00:58:04;;;;;;;25.20;15.57;;;5.00;83.30;;;3.98;67.81;94345.06;5067527;28;20211;-81
2021/01/04 01:00:51;;;;;;;26.55;14.65;;;5.00;83.40;;;3.98;67.41;94337.28;5037565;28;20757;-81
2021/01/04 01:03:49;;;;;;;26.10;14.68;;;4.90;83.30;;;3.97;67.76;94336.44;5041521;28;20195;-81
2021/01/04 01:06:52;;;;;;;30.45;14.55;;;4.90;83.50;;;3.96;67.73;94334.81;5085319;28;20255;-81
2021/01/04 01:09:19;;;;;;;25.17;14.18;;;4.90;83.40;;;3.96;67.73;94327.03;5071272;28;20218;-81
2021/01/04 01:12:15;;;;;;;23.60;14.40;;;4.90;83.40;;;3.97;67.78;94340.84;5044741;28;20537;-81
2021/01/04 01:15:08;;;;;;;28.58;15.07;;;4.90;83.50;;;3.97;67.57;94333.84;5047749;28;20231;-81
2021/01/04 01:18:19;;;;;;;29.08;15.15;;;4.90;83.60;;;3.95;67.73;94335.00;5047357;28;20202;-81
2021/01/04 01:20:53;;;;;;;25.83;14.20;;;4.90;83.60;;;3.94;67.92;94336.78;5032983;28;20246;-81
2021/01/04 01:23:24;;;;;;;27.48;15.93;;;4.90;83.50;;;3.92;67.78;94336.16;5056357;28;20321;-81
2021/01/04 01:26:41;;;;;;;28.13;15.88;;;5.00;83.60;;;3.91;67.64;94341.50;5062850;28;20673;-80
2021/01/04 01:29:49;;;;;;;26.98;14.98;;;4.80;83.50;;;3.92;67.96;94343.94;5055742;28;20181;-81
2021/01/04 01:32:47;;;;;;;24.70;13.50;;;4.90;83.60;;;3.93;67.96;94348.16;5062259;28;20206;-81
2021/01/04 01:35:32;;;;;;;26.23;13.52;;;4.90;83.70;;;3.95;68.23;94342.78;5072948;28;20215;-80
2021/01/04 01:38:36;;;;;;;20.95;13.27;;;4.80;83.60;;;3.95;68.04;94346.19;5073454;28;20238;-80
2021/01/04 01:41:53;;;;;;;22.05;12.70;;;4.80;83.70;;;3.96;68.04;94341.81;5056302;28;20215;-81
2021/01/04 01:44:38;;;;;;;20.98;12.02;;;4.80;83.70;;;3.95;67.58;94337.59;5052470;28;20644;-81
2021/01/04 01:47:35;;;;;;;20.38;12.23;;;4.90;83.80;;;4.01;67.69;94350.69;5053174;28;20200;-81
2021/01/04 01:50:11;;;;;;;22.30;12.93;;;4.90;83.80;;;4.02;67.80;94346.34;5032109;28;20220;-81
2021/01/04 01:53:23;;;;;;;20.58;12.25;;;4.90;83.70;;;4.05;67.93;94347.78;5054012;28;20341;-81
2021/01/04 01:56:12;;;;;;;21.85;12.73;;;4.90;83.80;;;4.08;68.08;94357.84;5054208;28;20285;-80
2021/01/04 01:58:55;;;;;;;20.83;12.32;;;4.90;83.80;;;4.09;67.96;94357.69;5051758;28;20657;-81
2021/01/04 02:02:12;;;;;;;22.63;12.95;;;4.90;83.80;;;4.07;68.19;94364.00;5074828;28;20195;-80
2021/01/04 02:05:16;;;;;;;19.15;11.25;;;5.00;83.90;;;4.13;67.95;94368.53;5026451;28;20232;-80
2021/01/04 02:08:02;;;;;;;21.67;12.57;;;5.00;83.80;;;4.12;67.95;94359.94;5064298;28;20638;-81
2021/01/04 02:10:41;;;;;;;29.80;13.55;;;5.00;83.70;;;4.18;67.79;94368.06;5056148;28;20274;-80
2021/01/04 02:13:54;;;;;;;24.83;13.60;;;5.00;83.70;;;4.19;67.81;94354.06;5037872;28;20258;-80
2021/01/04 02:16:34;;;;;;;22.08;13.20;;;5.00;83.70;;;4.19;68.01;94351.47;5017318;28;20666;-81
2021/01/04 02:19:14;;;;;;;27.00;13.23;;;5.00;83.70;;;4.20;67.75;94353.09;5041806;28;20278;-81
2021/01/04 02:22:17;;;;;;;27.85;13.63;;;5.00;83.60;;;4.21;67.52;94346.94;5073374;28;20203;-81
2021/01/04 02:24:43;;;;;;;34.00;13.95;;;5.10;83.70;;;4.20;67.81;94347.91;5056426;28;20223;-80
2021/01/04 02:27:19;;;;;;;33.55;13.82;;;5.10;83.60;;;4.16;67.57;94348.25;5062559;28;20224;-80
2021/01/04 02:29:46;;;;;;;29.73;13.43;;;5.00;83.50;;;4.18;67.81;94342.91;5057812;28;20218;-81
2021/01/04 02:32:13;;;;;;;22.52;13.43;;;5.10;83.60;;;4.21;67.56;94354.72;5020601;28;20192;-81
2021/01/04 02:34:53;;;;;;;20.23;12.65;;;5.00;83.50;;;4.19;67.43;94348.88;5050088;28;20559;-81
2021/01/04 02:37:23;;;;;;;22.05;13.23;;;5.10;83.60;;;4.19;67.92;94346.28;5053510;28;20665;-80
2021/01/04 02:40:00;;;;;;;21.77;12.30;;;5.10;83.60;;;4.19;67.74;94341.09;5054054;28;20218;-81
2021/01/04 02:42:40;;;;;;;20.10;12.32;;;5.10;83.60;;;4.18;67.38;94331.72;5054844;28;20219;-81
2021/01/04 02:45:24;;;;;;;22.40;12.90;;;5.10;83.60;;;4.19;67.64;94336.72;5036664;28;20266;-81
2021/01/04 02:48:08;;;;;;;26.50;13.43;;;5.10;83.60;;;4.20;67.52;94334.94;5053109;28;20184;-80
2021/01/04 02:51:11;;;;;;;22.52;13.02;;;5.10;83.60;;;4.18;67.85;94331.72;5066758;28;20606;-81
2021/01/04 02:54:17;;;;;;;28.15;15.98;;;5.10;83.60;;;4.18;67.73;94329.13;5073315;28;20192;-81
2021/01/04 02:57:24;;;;;;;32.58;16.27;;;5.10;83.60;;;4.11;67.61;94308.19;5052848;28;20651;-81
2021/01/04 02:59:53;;;;;;;29.38;15.73;;;5.10;83.50;;;4.09;67.61;94321.34;5065605;28;20223;-81
2021/01/04 03:02:36;;;;;;;27.70;15.68;;;5.10;83.40;;;4.05;67.50;94314.06;5041214;28;20663;-81
2021/01/04 03:05:12;;;;;;;25.35;14.40;;;5.00;83.30;;;4.08;67.57;94324.91;5058439;28;20235;-81
2021/01/04 03:07:40;;;;;;;25.13;14.43;;;5.00;83.30;;;4.07;67.84;94312.91;5065875;28;20242;-80
2021/01/04 03:10:33;;;;;;;24.00;13.85;;;5.00;83.40;;;4.07;67.56;94312.13;5049989;28;20223;-81
2021/01/04 03:13:28;;;;;;;22.58;13.10;;;5.00;83.50;;;4.07;67.60;94315.50;5051029;28;20192;-80
2021/01/04 03:16:29;;;;;;;23.05;14.32;;;5.00;83.50;;;4.05;67.66;94317.44;5046137;28;20693;-81
2021/01/04 03:19:11;;;;;;;23.35;13.80;;;5.00;83.50;;;4.02;67.99;94315.19;5044532;28;20282;-81
2021/01/04 03:21:39;;;;;;;21.23;12.88;;;5.00;83.50;;;4.08;67.78;94334.50;5085050;28;20742;-81
2021/01/04 03:24:17;;;;;;;22.63;13.45;;;5.00;83.50;;;4.09;67.30;94321.34;5038552;28;20660;-80
2021/01/04 03:26:51;;;;;;;23.63;13.90;;;5.00;83.60;;;4.11;67.87;94327.19;5043912;28;20604;-81
2021/01/04 03:29:18;;;;;;;22.05;12.85;;;5.00;83.60;;;4.12;67.80;94328.00;5036022;28;20226;-79
2021/01/04 03:31:45;;;;;;;24.90;13.32;;;5.00;83.60;;;4.16;67.77;94330.09;5064658;28;20737;-78
2021/01/04 03:34:11;;;;;;;27.27;14.60;;;5.00;83.70;;;4.16;67.77;94332.69;5053687;28;20196;-81
2021/01/04 03:36:38;;;;;;;26.17;13.88;;;5.00;83.60;;;4.16;67.68;94332.69;5054785;28;20199;-81
2021/01/04 03:39:05;;;;;;;26.40;14.50;;;5.00;83.60;;;4.19;67.77;94330.72;5061630;28;20787;-80
2021/01/04 03:41:32;;;;;;;25.77;14.07;;;5.00;83.60;;;4.19;67.82;94315.16;5058973;28;20285;-79
2021/01/04 03:43:59;;;;;;;33.40;14.45;;;5.00;83.70;;;4.19;68.03;94321.16;5065210;28;20693;-80
2021/01/04 03:46:25;;;;;;;28.83;15.27;;;5.10;83.70;;;4.16;67.76;94314.53;5057954;28;20230;-81
2021/01/04 03:48:53;;;;;;;36.80;15.25;;;5.00;83.60;;;4.21;67.85;94315.78;5047368;28;20211;-81
2021/01/04 03:51:20;;;;;;;28.17;13.50;;;5.10;83.70;;;4.24;67.78;94318.88;5050371;28;20194;-80
2021/01/04 03:53:46;;;;;;;34.50;13.93;;;5.10;83.60;;;4.20;67.82;94315.00;5050610;28;20200;-81
2021/01/04 03:56:21;;;;;;;45.22;15.23;;;5.10;83.70;;;4.24;67.96;94323.25;5055298;28;20213;-81
2021/01/04 03:58:48;;;;;;;28.65;14.73;;;5.10;83.60;;;4.23;67.85;94321.63;5046886;28;20631;-80
2021/01/04 04:01:15;;;;;;;28.30;14.13;;;5.10;83.70;;;4.24;67.45;94323.25;5038314;28;20227;-80
2021/01/04 04:03:43;;;;;;;33.42;14.95;;;5.10;83.60;;;4.23;67.64;94319.03;5033881;28;20235;-81
2021/01/04 04:06:12;;;;;;;35.05;14.23;;;5.10;83.70;;;4.27;67.43;94320.31;5064910;28;20318;-80
2021/01/04 04:08:40;;;;;;;48.75;14.77;;;5.10;83.60;;;4.25;67.65;94319.69;5066256;28;20204;-81
2021/01/04 04:11:08;;;;;;;44.00;15.05;;;5.10;83.50;;;4.24;67.47;94323.25;5052660;28;20680;-81
2021/01/04 04:13:35;;;;;;;52.40;15.20;;;5.10;83.50;;;4.21;67.63;94319.22;5033545;28;20563;-81
2021/01/04 04:16:02;;;;;;;50.85;15.10;;;5.20;83.50;;;4.20;67.36;94312.41;5033854;28;20212;-81
2021/01/04 04:18:29;;;;;;;43.00;14.05;;;5.10;83.40;;;4.17;67.41;94315.31;5042064;28;20276;-81
2021/01/04 04:20:55;;;;;;;35.85;15.75;;;5.10;83.50;;;4.20;67.72;94324.56;5051040;28;20220;-81
2021/01/04 04:23:22;;;;;;;30.65;14.20;;;5.10;83.50;;;4.20;67.44;94330.56;5049062;28;20230;-81
2021/01/04 04:25:49;;;;;;;29.88;13.85;;;5.10;83.50;;;4.21;67.64;94323.59;5062481;28;20235;-80
2021/01/04 04:28:16;;;;;;;26.67;14.07;;;5.10;83.60;;;4.22;67.78;94318.22;5049523;28;20200;-80
2021/01/04 04:30:43;;;;;;;25.70;14.23;;;5.10;83.60;;;4.20;67.72;94322.78;5054819;28;20243;-81
2021/01/04 04:33:09;;;;;;;36.65;14.30;;;5.10;83.60;;;4.20;67.77;94321.97;5049589;28;20192;-81
2021/01/04 04:35:36;;;;;;;28.13;14.73;;;5.10;83.60;;;4.19;67.16;94318.56;5086159;28;20230;-80
2021/01/04 04:38:04;;;;;;;30.90;14.40;;;5.10;83.50;;;4.18;67.71;94324.72;5067528;28;20234;-81
2021/01/04 04:40:33;;;;;;;28.15;13.52;;;5.10;83.50;;;4.14;67.50;94319.06;5034025;28;20216;-79
2021/01/04 04:43:28;;;;;;;25.20;13.93;;;5.10;83.40;;;4.15;67.43;94332.84;5071099;28;20200;-80
2021/01/04 04:45:56;;;;;;;21.27;13.00;;;5.00;83.30;;;4.14;67.66;94326.84;5051742;28;20259;-81
2021/01/04 04:48:34;;;;;;;22.98;13.73;;;5.00;83.30;;;4.15;67.47;94335.44;5047638;28;20192;-81
2021/01/04 04:51:20;;;;;;;23.27;13.13;;;5.00;83.40;;;4.10;67.56;94332.53;5059162;28;20273;-81
2021/01/04 04:54:27;;;;;;;22.30;12.75;;;5.00;84.20;;;4.11;67.59;94347.13;5057106;28;20188;-80
2021/01/04 04:57:02;;;;;;;24.45;13.30;;;5.00;83.40;;;4.11;67.61;94344.53;5036326;28;20205;-81
2021/01/04 05:00:18;;;;;;;24.02;13.80;;;5.00;83.40;;;4.08;67.58;94350.06;5040955;28;20318;-81
2021/01/04 05:03:28;;;;;;;24.48;13.75;;;5.00;83.40;;;4.09;67.71;94360.28;5052483;28;20203;-81
2021/01/04 05:06:48;;;;;;;23.35;13.10;;;5.00;83.40;;;4.09;67.75;94360.28;5054181;28;20310;-81
2021/01/04 05:09:46;;;;;;;27.70;13.25;;;5.00;83.40;;;4.08;67.76;94356.06;5051378;28;20314;-81
2021/01/04 05:12:15;;;;;;;22.63;12.57;;;5.00;83.40;;;4.10;67.51;94355.88;5035973;28;20224;-81
2021/01/04 05:15:13;;;;;;;21.42;12.95;;;5.00;83.40;;;4.09;67.38;94357.69;5055909;28;20211;-80
2021/01/04 05:18:09;;;;;;;24.13;13.30;;;5.00;83.40;;;4.10;67.56;94355.88;5046794;28;20187;-81
2021/01/04 05:20:52;;;;;;;23.38;13.65;;;5.00;83.40;;;4.08;67.64;94365.63;5037727;28;20938;-81
2021/01/04 05:23:47;;;;;;;23.95;13.52;;;5.00;83.40;;;4.05;67.17;94360.75;5066965;28;20214;-80
2021/01/04 05:26:41;;;;;;;23.08;12.95;;;5.00;83.30;;;4.05;67.48;94358.97;5049878;28;20236;-80
2021/01/04 05:29:47;;;;;;;22.60;12.90;;;5.00;83.30;;;4.02;67.30;94354.13;5033930;28;20231;-81
2021/01/04 05:32:32;;;;;;;23.08;12.55;;;5.00;83.30;;;4.03;67.39;94360.13;5066081;28;20346;-80
2021/01/04 05:35:05;;;;;;;23.33;13.27;;;4.90;83.20;;;4.01;67.44;94358.50;5057388;28;20281;-81
2021/01/04 05:38:24;;;;;;;23.38;12.55;;;4.90;83.20;;;3.95;67.38;94348.78;5070748;28;20294;-81
2021/01/04 05:41:20;;;;;;;22.60;12.63;;;4.90;83.10;;;3.97;67.35;94357.22;5067146;28;20223;-81
2021/01/04 05:44:14;;;;;;;18.77;10.82;;;4.90;83.10;;;3.96;67.60;94359.97;5041811;28;20207;-81
2021/01/04 05:47:05;;;;;;;18.42;10.82;;;4.90;83.20;;;3.98;67.66;94360.63;5052678;28;20272;-81
2021/01/04 05:49:43;;;;;;;15.15;9.93;;;4.90;83.20;;;3.99;67.57;94364.81;5064132;28;20284;-81
2021/01/04 05:52:10;;;;;;;15.77;9.82;;;4.90;84.00;;;4.01;67.33;94360.28;5089705;28;20569;-80
2021/01/04 05:54:37;;;;;;;16.67;10.15;;;5.00;83.30;;;4.00;67.60;94353.47;5056050;28;20310;-80
2021/01/04 05:57:10;;;;;;;17.27;10.80;;;4.90;83.30;;;4.04;67.79;94359.13;5037786;28;20199;-81
2021/01/04 06:00:07;;;;;;;15.90;9.73;;;4.90;83.30;;;4.02;67.52;94346.34;5040979;28;20330;-81
2021/01/04 06:02:38;;;;;;;15.00;9.65;;;4.90;83.10;;;4.03;67.76;94345.38;5031022;28;20207;-81
2021/01/04 06:05:17;;;;;;;17.75;10.20;;;5.00;83.30;;;4.05;67.32;94346.00;5054101;28;20761;-81
2021/01/04 06:07:45;;;;;;;16.55;10.30;;;4.90;83.20;;;4.01;67.46;94339.53;5053818;28;20196;-81
2021/01/04 06:10:24;;;;;;;15.95;10.38;;;4.90;83.20;;;4.05;67.58;94355.56;5059759;28;20691;-81
2021/01/04 06:13:11;;;;;;;17.90;10.82;;;4.90;83.10;;;4.05;67.47;94351.19;5052222;28;20573;-81
2021/01/04 06:15:38;;;;;;;16.13;10.35;;;5.00;83.20;;;4.05;67.45;94364.16;5036647;28;20223;-81
2021/01/04 06:18:11;;;;;;;15.63;10.15;;;4.90;83.20;;;4.02;67.66;94354.13;5055475;28;20188;-80
2021/01/04 06:20:41;;;;;;;16.42;10.23;;;4.90;83.10;;;4.06;67.21;94357.19;5072008;28;20215;-81
2021/01/04 06:23:21;;;;;;;14.32;9.90;;;4.90;83.10;;;4.04;67.34;94356.56;5053388;28;20200;-81
2021/01/04 06:26:00;;;;;;;13.32;8.95;;;5.00;83.20;;;4.04;67.55;94359.97;5059803;28;20292;-81
2021/01/04 06:28:27;;;;;;;13.95;9.52;;;4.90;83.90;;;4.05;67.07;94358.97;5056992;28;20248;-81
2021/01/04 06:31:07;;;;;;;14.50;9.82;;;5.00;83.20;;;4.05;67.26;94366.75;5048345;28;20319;-80
2021/01/04 06:33:35;;;;;;;15.02;10.70;;;4.90;83.10;;;4.06;67.33;94370.19;5036826;28;20187;-80
2021/01/04 06:36:06;;;;;;;13.50;9.65;;;4.90;83.20;;;4.05;67.40;94371.94;5045239;28;20211;-80
2021/01/04 06:38:40;;;;;;;15.30;10.27;;;4.90;83.20;;;4.05;67.40;94376.34;5053131;28;20773;-79
2021/01/04 06:41:32;;;;;;;12.35;8.98;;;4.90;83.10;;;4.03;67.31;94378.28;5038079;28;20247;-80
2021/01/04 06:44:29;;;;;;;16.33;9.90;;;4.90;83.10;;;4.01;66.96;94384.44;5048570;28;20206;-81
2021/01/04 06:47:39;;;;;;;12.13;8.07;;;4.90;83.00;;;4.02;67.40;94398.25;5050915;28;20224;-81
2021/01/04 06:50:21;;;;;;;12.23;8.13;;;4.90;83.90;;;4.01;67.24;94387.03;5050735;28;20700;-81
2021/01/04 06:53:28;;;;;;;11.77;8.57;;;4.90;83.10;;;3.99;67.25;94391.59;5039432;28;20257;-81
2021/01/04 06:56:29;;;;;;;13.35;8.32;;;4.90;83.10;;;3.95;67.48;94386.88;5034315;28;20725;-81
2021/01/04 06:59:30;;;;;;;12.73;8.30;;;4.90;83.00;;;3.96;67.39;94389.31;5059379;28;20249;-80
2021/01/04 07:02:33;;;;;;;11.85;8.02;;;4.90;83.00;;;3.96;67.39;94397.09;5052364;28;20206;-81
2021/01/04 07:05:50;;;;;;;9.73;7.43;;;4.90;83.00;;;3.91;67.27;94383.81;5050774;28;20490;-81
2021/01/04 07:08:50;;;;;;;10.15;7.13;;;4.90;83.00;;;3.92;67.46;94385.44;5080108;28;20200;-80
2021/01/04 07:11:59;;;;;;;12.68;8.43;;;4.90;83.00;;;3.88;67.46;94394.50;5052168;28;20222;-81
2021/01/04 07:15:03;;;;;;;9.35;6.47;;;4.80;82.90;;;3.88;67.46;94391.13;5020558;28;20212;-82
2021/01/04 07:17:49;;;;;;;10.38;6.78;;;4.80;83.00;;;3.84;67.55;94390.63;5052456;28;20196;-81
2021/01/04 07:20:30;;;;;;;9.30;6.10;;;4.80;82.80;;;3.85;67.65;94400.03;5066642;28;20223;-82
2021/01/04 07:23:19;;;;;;;7.63;5.75;;;4.80;82.80;;;3.83;67.28;94404.56;5055649;28;20650;-80
2021/01/04 07:26:22;;;;;;;8.88;6.07;;;4.80;82.80;;;3.80;67.42;94407.50;5085793;28;20224;-81
2021/01/04 07:29:14;;;;;;;7.32;5.55;;;4.80;82.80;;;3.73;67.53;94406.53;5068574;28;20184;-81
2021/01/04 07:32:01;;;;;;;6.90;4.88;;;4.70;83.50;;;3.76;67.48;94411.38;5036201;28;20236;-82
2021/01/04 07:34:53;;;;;;;6.03;4.70;;;4.70;82.60;;;3.76;67.18;94409.59;5036789;28;20220;-81
2021/01/04 07:37:33;;;;;;;5.45;4.25;;;4.70;82.70;;;3.76;67.47;94412.19;5042520;28;20298;-81
2021/01/04 07:40:35;;;;;;;7.10;4.50;;;4.70;82.90;;;3.73;67.30;94412.50;5029332;28;20357;-81
2021/01/04 07:43:45;;;;;;;5.82;4.45;;;4.70;82.70;;;3.72;67.34;94408.28;5042104;28;20298;-80
2021/01/04 07:46:36;;;;;;;5.68;4.60;;;4.70;82.80;;;3.71;67.58;94411.88;5022137;28;20313;-81
2021/01/04 07:49:18;;;;;;;6.15;4.47;;;4.70;82.70;;;3.72;67.32;94413.47;5055648;28;20199;-81
2021/01/04 07:52:26;;;;;;;7.45;5.00;;;4.70;82.80;;;3.73;67.33;94411.72;5045202;28;20231;-81
2021/01/04 07:55:42;;;;;;;6.40;4.55;;;4.70;82.80;;;3.75;67.22;94404.56;5045655;28;20226;-80
2021/01/04 07:59:14;;;;;;;7.35;4.57;;;4.70;82.80;;;3.76;67.63;94408.78;5080229;28;20624;-81
2021/01/04 08:02:02;;;;;;;8.65;5.10;;;4.70;82.90;;;3.76;67.41;94412.19;5050781;28;20638;-81
2021/01/04 08:04:48;;;;;;;8.50;5.82;;;4.70;82.90;;;3.76;67.38;94408.78;5054735;28;20731;-81
2021/01/04 08:08:07;;;;;;;7.72;5.40;;;4.70;82.90;;;3.79;67.46;94408.47;5068807;28;20309;-81
2021/01/04 08:11:28;;;;;;;9.70;5.65;;;4.70;83.00;;;3.83;67.11;94414.94;5051494;28;20741;-81
2021/01/04 08:14:34;;;;;;;7.70;5.45;;;4.70;83.10;;;3.84;67.56;94403.59;5055736;28;20241;-82
2021/01/04 08:17:24;;;;;;;9.38;5.50;;;4.70;83.00;;;3.85;67.13;94413.81;5068276;28;20196;-82
2021/01/04 08:19:56;;;;;;;8.95;5.78;;;4.70;83.00;;;3.88;67.42;94409.28;5064826;28;20229;-81
2021/01/04 08:23:25;;;;;;;9.65;5.78;;;4.70;83.00;;;3.88;67.08;94409.28;5054886;28;20666;-82
2021/01/04 08:26:03;;;;;;;11.88;6.82;;;4.80;83.00;;;3.88;67.24;94406.69;5048542;28;20239;-81
2021/01/04 08:28:52;;;;;;;9.55;6.60;;;4.80;83.00;;;3.88;67.40;94406.69;5049785;28;20196;-81
2021/01/04 08:31:37;;;;;;;10.20;6.47;;;4.80;83.00;;;3.88;67.24;94414.47;5034722;28;20652;-81
2021/01/04 08:34:08;;;;;;;11.02;6.85;;;4.80;83.00;;;3.85;67.23;94406.03;5041092;28;20646;-81
2021/01/04 08:36:59;;;;;;;11.07;6.82;;;4.80;83.00;;;3.86;67.38;94404.25;5034949;28;20242;-81
2021/01/04 08:39:26;;;;;;;12.02;7.68;;;4.80;83.00;;;3.88;67.06;94409.28;5054128;28;20236;-81
2021/01/04 08:42:27;;;;;;;11.38;7.13;;;4.80;83.10;;;3.81;67.22;94402.13;5064121;28;20199;-80
2021/01/04 08:45:08;;;;;;;13.02;7.20;;;4.80;82.90;;;3.83;67.10;94409.75;5049416;28;20219;-82
2021/01/04 08:47:46;;;;;;;11.52;7.07;;;4.70;82.80;;;3.84;67.24;94420.00;5053948;28;20218;-81
2021/01/04 08:50:36;;;;;;;12.70;7.53;;;4.70;82.90;;;3.82;67.25;94414.16;5034575;28;20643;-81
2021/01/04 08:53:30;;;;;;;10.82;6.53;;;4.70;82.90;;;3.88;67.20;94420.44;5051542;28;20191;-82
2021/01/04 08:56:28;;;;;;;12.57;7.60;;;4.80;83.00;;;3.88;67.40;94424.84;5032372;28;20223;-80
2021/01/04 08:59:11;;;;;;;10.88;7.20;;;4.80;83.00;;;3.91;67.01;94432.31;5026440;28;20302;-81
2021/01/04 09:02:13;;;;;;;13.13;7.78;;;4.80;83.00;;;3.92;67.16;94444.28;5045951;28;20207;-81
2021/01/04 09:04:41;;;;;;;12.43;7.45;;;4.80;83.00;;;3.93;67.11;94438.13;5069375;28;20254;-80
2021/01/04 09:07:21;;;;;;;13.13;7.93;;;4.80;83.00;;;3.92;67.20;94426.13;5036626;28;20242;-81
2021/01/04 09:10:14;;;;;;;14.18;7.95;;;4.80;83.00;;;3.96;67.08;94435.22;5059404;28;20234;-78
2021/01/04 09:12:51;;;;;;;13.65;8.50;;;4.80;82.90;;;3.91;66.77;94432.31;5039154;28;20200;-79
2021/01/04 09:15:21;;;;;;;11.60;7.30;;;4.80;82.90;;;3.96;67.15;94430.03;5043212;28;20216;-81
2021/01/04 09:18:09;;;;;;;12.15;7.68;;;4.80;83.00;;;3.98;67.16;94428.09;5064167;28;20199;-80
2021/01/04 09:20:50;;;;;;;8.70;6.75;;;4.80;83.00;;;4.01;67.32;94428.56;5049122;28;20748;-81
2021/01/04 09:23:40;;;;;;;9.73;6.20;;;4.80;83.10;;;4.08;67.09;94425.34;5061762;28;20264;-81
2021/01/04 09:26:16;;;;;;;10.30;6.00;;;4.90;83.20;;;4.13;67.36;94413.47;5057357;28;20262;-80
2021/01/04 09:29:04;;;;;;;10.90;7.05;;;4.90;83.40;;;4.21;67.42;94424.81;5070369;28;20558;-80
2021/01/04 09:31:31;;;;;;;13.25;8.00;;;4.90;83.30;;;4.25;67.04;94426.91;5029133;28;20199;-80
2021/01/04 09:33:58;;;;;;;12.93;8.50;;;5.00;83.30;;;4.27;66.92;94419.78;5036090;28;20200;-80
2021/01/04 09:36:25;;;;;;;14.18;7.47;;;5.00;83.20;;;4.25;66.87;94411.34;5068605;28;20192;-81
2021/01/04 09:39:07;;;;;;;11.50;7.45;;;5.00;83.10;;;4.32;66.62;94427.88;5050216;28;20291;-82
2021/01/04 09:41:34;;;;;;;12.30;7.32;;;5.10;83.10;;;4.36;66.68;94424.94;5073164;28;20198;-80
2021/01/04 09:44:08;;;;;;;12.65;8.15;;;5.10;83.10;;;4.37;66.80;94422.19;5070539;28;20192;-81
2021/01/04 09:46:50;;;;;;;11.45;7.50;;;5.10;83.00;;;4.39;66.72;94425.41;5052000;28;20318;-80
2021/01/04 09:49:44;;;;;;;13.95;7.82;;;5.10;83.00;;;4.37;66.60;94423.97;5051037;28;20211;-81
2021/01/04 09:52:41;;;;;;;13.20;8.57;;;5.20;83.00;;;4.41;66.71;94430.47;5036503;28;20207;-80
2021/01/04 09:55:12;;;;;;;13.25;8.57;;;5.20;82.80;;;4.41;66.70;94422.69;5051784;28;20220;-81
2021/01/04 09:57:46;;;;;;;11.68;7.43;;;5.20;82.90;;;4.41;66.52;94426.06;5046442;28;20264;-81
2021/01/04 10:00:25;;;;;;;11.85;7.45;;;5.20;82.70;;;4.41;66.78;94420.88;5057668;28;20681;-82
2021/01/04 10:03:08;;;;;;;11.43;7.40;;;5.20;82.70;;;4.45;66.58;94421.38;5053811;28;20192;-80
2021/01/04 10:05:42;;;;;;;10.55;7.20;;;5.20;82.70;;;4.43;66.85;94415.53;5054365;28;20265;-81
2021/01/04 10:08:23;;;;;;;9.85;7.00;;;5.20;82.80;;;4.49;66.76;94425.25;5068136;28;20198;-81
2021/01/04 10:11:06;;;;;;;11.43;7.55;;;5.30;82.70;;;4.49;67.18;94426.06;5033279;28;20678;-81
2021/01/04 10:13:39;;;;;;;10.23;7.60;;;5.30;82.70;;;4.53;66.79;94423.13;5037374;28;20207;-81
2021/01/04 10:16:18;;;;;;;11.32;7.32;;;5.30;82.80;;;4.59;66.97;94423.28;5048165;28;20239;-81
2021/01/04 10:19:03;;;;;;;9.90;6.47;;;5.30;82.90;;;4.63;67.22;94421.16;5038944;28;20188;-81
2021/01/04 10:21:58;;;;;;;10.35;7.28;;;5.40;82.90;;;4.68;66.68;94420.66;5039516;28;20290;-81
2021/01/04 10:24:53;;;;;;;12.50;7.43;;;5.40;83.00;;;4.70;66.54;94416.09;5057465;28;20223;-80
2021/01/04 10:27:24;;;;;;;11.00;6.65;;;5.40;82.80;;;4.73;66.77;94406.19;5023663;28;20222;-81
2021/01/04 10:30:14;;;;;;;10.13;6.72;;;5.50;82.90;;;4.77;66.53;94407.47;5053530;28;20233;-80
2021/01/04 10:32:42;;;;;;;9.63;7.20;;;5.50;82.90;;;4.85;66.74;94398.84;5040097;28;20342;-80
2021/01/04 10:35:23;;;;;;;11.10;6.78;;;5.50;82.90;;;4.86;66.77;94404.81;5048136;28;20436;-81
2021/01/04 10:38:20;;;;;;;15.07;9.68;;;5.60;82.70;;;4.90;66.65;94401.72;5058014;28;20282;-82
2021/01/04 10:40:49;;;;;;;22.58;13.18;;;5.60;82.90;;;4.92;66.46;94404.16;5062264;28;20281;-81
2021/01/04 10:43:24;;;;;;;23.08;12.82;;;5.60;82.80;;;4.92;66.56;94407.56;5058317;28;20192;-82
2021/01/04 10:46:38;;;;;;;18.85;11.82;;;5.60;82.70;;;4.92;66.43;94389.38;5042196;28;20878;-81
2021/01/04 10:49:25;;;;;;;18.42;11.27;;;5.70;82.60;;;4.96;66.72;94395.06;5073364;28;20202;-81
2021/01/04 10:51:55;;;;;;;24.52;13.40;;;5.70;82.60;;;5.00;66.81;94390.31;5052797;28;20242;-81
2021/01/04 10:54:41;;;;;;;32.47;17.20;;;5.70;82.90;;;5.01;66.57;94382.34;5040481;28;20261;-81
2021/01/04 10:57:11;;;;;;;22.13;12.18;;;5.70;82.70;;;5.05;66.51;94378.41;5036825;28;20199;-81
2021/01/04 11:00:13;;;;;;;21.52;11.73;;;5.80;82.90;;;5.07;66.42;94379.06;5054356;28;20690;-81
2021/01/04 11:02:47;;;;;;;31.65;14.77;;;5.80;82.70;;;5.05;66.43;94375.81;5037281;28;20269;-81
2021/01/04 11:05:20;;;;;;;19.48;11.63;;;5.80;82.80;;;5.11;66.42;94376.94;5052686;28;20215;-82
2021/01/04 11:07:47;;;;;;;13.35;8.77;;;5.80;82.80;;;5.12;66.35;94371.56;5052344;28;20219;-80
2021/01/04 11:10:28;;;;;;;19.70;11.15;;;5.80;82.80;;;5.14;66.46;94374.00;5055556;28;20689;-81
2021/01/04 11:12:59;;;;;;;16.17;9.38;;;5.90;82.90;;;5.14;66.72;94363.59;5052698;28;20693;-80
2021/01/04 11:15:36;;;;;;;19.75;11.40;;;5.90;82.80;;;5.16;66.41;94371.22;5066884;28;20278;-80
2021/01/04 11:18:05;;;;;;;15.57;8.95;;;5.90;82.70;;;5.16;66.23;94368.63;5070283;28;20557;-80
2021/01/04 11:20:34;;;;;;;13.80;8.18;;;5.90;82.70;;;5.17;66.31;94371.03;5065697;28;20208;-80
2021/01/04 11:23:13;;;;;;;13.73;8.55;;;5.90;82.60;;;5.16;66.55;94371.22;5048993;28;20207;-81
2021/01/04 11:25:45;;;;;;;14.20;8.70;;;5.90;82.50;;;5.16;66.04;94373.81;5044520;28;20289;-82
2021/01/04 11:28:15;;;;;;;12.02;7.85;;;5.90;82.50;;;5.17;66.32;94373.66;5039324;28;20567;-80
2021/01/04 11:30:52;;;;;;;13.98;8.48;;;5.90;82.60;;;5.17;66.47;94360.66;5054730;28;20215;-80
2021/01/04 11:33:23;;;;;;;13.77;8.80;;;5.90;82.60;;;5.19;66.17;94363.06;5069112;28;20206;-81
2021/01/04 11:35:50;;;;;;;11.85;7.93;;;5.90;82.60;;;5.22;66.66;94367.94;5064152;28;20658;-80